createdAt,value
2018-12-29T00:03:32.372Z,9.57
2018-12-29T00:08:38.174Z,9.37
2018-12-29T00:13:44.045Z,9.33
2018-12-29T00:18:49.897Z,9.70
2018-12-29T00:23:55.657Z,8.70
2018-12-29T00:29:01.558Z,8.33
2018-12-29T00:34:07.497Z,9.03
2018-12-29T00:39:11.339Z,8.23
2018-12-29T00:44:17.155Z,9.20
2018-12-29T00:49:24.102Z,9.33
2018-12-29T00:54:30.125Z,8.90
2018-12-29T00:59:39.157Z,8.80
2018-12-29T01:04:45.302Z,8.60
2018-12-29T01:09:51.082Z,8.97
2018-12-29T01:14:57.350Z,8.77
2018-12-29T01:20:04.339Z,8.37
2018-12-29T01:25:10.120Z,8.60
2018-12-29T01:30:16.240Z,8.77
2018-12-29T01:35:22.019Z,7.37
2018-12-29T01:40:27.820Z,8.47
2018-12-29T01:45:34.140Z,7.60
2018-12-29T01:50:40.046Z,8.80
2018-12-29T01:55:45.843Z,7.50
2018-12-29T02:00:51.690Z,7.17
2018-12-29T02:06:00.086Z,6.80
2018-12-29T02:11:05.998Z,5.43
2018-12-29T02:16:11.977Z,6.23
2018-12-29T02:21:17.795Z,6.40
2018-12-29T02:26:23.739Z,7.07
2018-12-29T02:31:29.610Z,6.20
2018-12-29T02:36:37.142Z,6.67
2018-12-29T02:41:42.926Z,7.80
2018-12-29T02:46:48.911Z,7.57
2018-12-29T02:51:54.684Z,7.90
2018-12-29T02:57:00.447Z,8.67
2018-12-29T03:02:07.484Z,8.70
2018-12-29T03:07:13.621Z,7.70
2018-12-29T03:12:19.408Z,6.77
2018-12-29T03:17:25.360Z,8.93
2018-12-29T03:22:31.377Z,7.10
2018-12-29T03:27:37.183Z,8.73
2018-12-29T03:32:43.043Z,8.23
2018-12-29T03:37:51.321Z,7.50
2018-12-29T03:42:57.199Z,7.27
2018-12-29T03:48:03.456Z,6.93
2018-12-29T03:53:09.311Z,7.63
2018-12-29T03:58:15.164Z,6.27
2018-12-29T04:03:21.447Z,8.10
2018-12-29T04:08:27.457Z,8.30
2018-12-29T04:13:33.638Z,7.77
2018-12-29T04:18:39.446Z,7.83
2018-12-29T04:23:45.383Z,8.00
2018-12-29T04:28:51.244Z,7.90
2018-12-29T04:33:57.116Z,7.30
2018-12-29T04:39:02.953Z,8.50
2018-12-29T04:44:08.767Z,9.40
2018-12-29T04:49:16.976Z,9.83
2018-12-29T04:54:23.179Z,10.20
2018-12-29T04:59:28.947Z,9.57
2018-12-29T05:04:36.917Z,10.80
2018-12-29T05:09:42.878Z,10.90
2018-12-29T05:14:48.707Z,10.43
2018-12-29T05:24:58.549Z,9.30
2018-12-29T05:30:06.135Z,8.97
2018-12-29T05:35:12.303Z,10.50
2018-12-29T05:40:18.171Z,9.17
2018-12-29T05:45:23.985Z,9.27
2018-12-29T05:50:30.416Z,9.03
2018-12-29T05:55:36.351Z,9.63
2018-12-29T06:00:43.031Z,9.23
2018-12-29T06:05:48.890Z,9.70
2018-12-29T06:10:54.711Z,9.10
2018-12-29T06:16:00.534Z,8.80
2018-12-29T06:21:06.374Z,9.23
2018-12-29T06:26:12.135Z,9.27
2018-12-29T06:31:17.941Z,8.20
2018-12-29T06:36:23.797Z,8.00
2018-12-29T06:41:29.712Z,8.20
2018-12-29T06:46:35.552Z,7.60
2018-12-29T06:51:42.024Z,7.60
2018-12-29T06:56:47.901Z,8.70
2018-12-29T07:01:53.720Z,7.70
2018-12-29T07:06:59.562Z,7.23
2018-12-29T07:12:05.596Z,7.20
2018-12-29T07:17:11.593Z,7.53
2018-12-29T07:22:17.842Z,7.80
2018-12-29T07:27:24.000Z,7.27
2018-12-29T07:32:30.078Z,8.13
2018-12-29T07:37:36.247Z,6.87
2018-12-29T07:42:42.054Z,6.70
2018-12-29T07:47:47.909Z,7.47
2018-12-29T07:52:56.363Z,7.90
2018-12-29T07:58:02.692Z,7.50
2018-12-29T08:03:08.587Z,7.57
2018-12-29T08:08:14.407Z,8.70
2018-12-29T08:13:20.365Z,9.13
2018-12-29T08:18:26.149Z,9.70
2018-12-29T08:23:32.070Z,10.73
2018-12-29T08:28:37.880Z,10.63
2018-12-29T08:33:44.008Z,11.00
2018-12-29T08:38:49.881Z,12.30
2018-12-29T08:43:55.817Z,14.03
2018-12-29T08:49:01.741Z,13.50
2018-12-29T08:54:09.960Z,11.77
2018-12-29T08:59:15.894Z,12.10
2018-12-29T09:04:21.718Z,11.70
2018-12-29T09:14:32.432Z,10.30
2018-12-29T09:19:38.229Z,11.53
2018-12-29T09:24:44.124Z,11.97
2018-12-29T09:29:49.919Z,11.67
2018-12-29T09:34:55.762Z,10.70
2018-12-29T09:40:01.923Z,9.80
2018-12-29T09:45:09.623Z,8.70
2018-12-29T09:50:15.456Z,8.20
2018-12-29T09:55:21.302Z,8.70
2018-12-29T10:00:35.667Z,8.67
2018-12-29T10:05:41.705Z,8.60
2018-12-29T10:10:47.584Z,8.93
2018-12-29T10:15:54.484Z,8.33
2018-12-29T10:21:00.321Z,8.50
2018-12-29T10:26:06.667Z,10.07
2018-12-29T10:31:12.840Z,10.03
2018-12-29T10:36:19.670Z,10.03
2018-12-29T10:41:25.931Z,9.40
2018-12-29T10:46:31.756Z,12.27
2018-12-29T10:51:37.577Z,11.57
2018-12-29T10:56:44.030Z,13.97
2018-12-29T11:04:51.778Z,12.50
2018-12-29T11:09:58.047Z,10.80
2018-12-29T11:15:04.833Z,11.70
2018-12-29T11:20:10.697Z,11.20
2018-12-29T11:25:16.495Z,10.63
2018-12-29T11:30:22.360Z,11.43
2018-12-29T11:35:28.889Z,11.60
2018-12-29T11:40:38.064Z,10.90
2018-12-29T11:45:44.470Z,10.70
2018-12-29T11:50:50.268Z,10.00
2018-12-29T11:55:56.109Z,10.30
2018-12-29T12:01:02.196Z,9.63
2018-12-29T12:06:08.120Z,9.43
2018-12-29T12:11:13.922Z,9.17
2018-12-29T12:16:20.695Z,8.90
2018-12-29T12:21:26.486Z,7.80
2018-12-29T12:27:36.801Z,7.33
2018-12-29T12:32:42.966Z,7.70
2018-12-29T12:37:48.891Z,6.57
2018-12-29T12:42:55.243Z,6.00
2018-12-29T12:48:05.193Z,4.90
2018-12-29T12:53:09.030Z,5.60
2018-12-29T12:58:15.549Z,5.60
2018-12-29T13:03:27.297Z,5.43
2018-12-29T13:08:33.434Z,5.73
2018-12-29T13:13:39.456Z,5.50
2018-12-29T13:18:46.515Z,4.90
2018-12-29T13:23:52.393Z,6.27
2018-12-29T13:28:58.280Z,6.23
2018-12-29T13:39:09.682Z,5.57
2018-12-29T13:44:17.640Z,5.77
2018-12-29T13:49:23.527Z,5.50
2018-12-29T13:54:29.768Z,5.70
2018-12-29T14:11:07.520Z,5.90
2018-12-29T14:16:15.068Z,5.70
2018-12-29T14:21:20.964Z,6.47
2018-12-29T14:26:26.899Z,5.73
2018-12-29T14:31:35.135Z,5.80
2018-12-29T14:36:42.529Z,5.73
2018-12-29T14:41:48.540Z,5.10
2018-12-29T14:46:54.432Z,5.80
2018-12-29T14:52:00.560Z,6.87
2018-12-29T14:57:06.534Z,6.90
2018-12-29T15:02:12.689Z,6.27
2018-12-29T15:07:19.081Z,5.50
2018-12-29T15:12:25.443Z,6.20
2018-12-29T15:17:34.559Z,6.73
2018-12-29T15:22:41.193Z,6.20
2018-12-29T15:27:47.180Z,6.03
2018-12-29T15:32:53.128Z,5.67
2018-12-29T15:37:59.263Z,5.90
2018-12-29T15:43:08.217Z,6.50
2018-12-29T15:48:17.522Z,6.60
2018-12-29T15:53:23.373Z,5.80
2018-12-29T15:58:29.309Z,6.33
2018-12-29T16:03:36.646Z,6.83
2018-12-29T16:08:43.203Z,6.60
2018-12-29T16:13:50.644Z,6.90
2018-12-29T16:18:58.874Z,6.77
2018-12-29T16:24:07.710Z,7.47
2018-12-29T16:29:15.205Z,7.23
2018-12-29T16:34:21.165Z,6.70
2018-12-29T16:39:27.532Z,6.80
2018-12-29T16:44:34.027Z,6.50
2018-12-29T16:49:40.133Z,7.07
2018-12-29T16:54:48.039Z,6.73
2018-12-29T16:59:54.181Z,6.10
2018-12-29T17:05:02.155Z,6.23
2018-12-29T17:10:09.751Z,6.20
2018-12-29T17:15:17.521Z,6.30
2018-12-29T17:20:23.450Z,5.70
2018-12-29T17:25:29.504Z,5.63
2018-12-29T17:30:35.724Z,4.80
2018-12-29T17:35:45.118Z,5.23
2018-12-29T17:40:52.321Z,6.07
2018-12-29T17:45:59.959Z,5.73
2018-12-29T17:51:11.272Z,5.47
2018-12-29T17:56:17.722Z,5.07
2018-12-29T18:01:26.020Z,4.80
2018-12-29T18:06:33.829Z,4.77
2018-12-29T18:11:41.420Z,4.90
2018-12-29T18:16:49.696Z,4.47
2018-12-29T18:21:56.052Z,5.33
2018-12-29T18:27:02.457Z,4.27
2018-12-29T18:32:09.993Z,4.73
2018-12-29T18:37:16.210Z,3.50
2018-12-29T18:42:26.141Z,4.70
2018-12-29T18:47:32.170Z,4.37
2018-12-29T18:52:39.638Z,4.60
2018-12-29T18:57:46.301Z,5.77
2018-12-29T19:02:55.575Z,5.40
2018-12-29T19:08:04.334Z,5.30
2018-12-29T19:13:13.267Z,5.47
2018-12-29T19:18:24.107Z,5.60
2018-12-29T19:23:30.137Z,5.50
2018-12-29T19:28:38.576Z,4.33
2018-12-29T19:33:44.763Z,5.63
2018-12-29T19:38:52.814Z,5.87
2018-12-29T19:44:04.598Z,5.50
2018-12-29T19:49:14.062Z,4.80
2018-12-29T19:54:21.292Z,6.63
2018-12-29T19:59:31.613Z,5.83
2018-12-29T20:04:40.624Z,5.37
2018-12-29T20:09:49.250Z,5.30
2018-12-29T20:14:56.296Z,4.33
2018-12-29T20:20:02.339Z,4.97
2018-12-29T20:25:10.160Z,4.03
2018-12-29T20:30:17.015Z,4.73
2018-12-29T20:35:25.915Z,3.43
2018-12-29T20:40:39.209Z,3.70
2018-12-29T20:45:47.039Z,4.07
2018-12-29T20:50:59.733Z,3.83
2018-12-29T20:56:09.877Z,3.67
2018-12-29T21:06:20.819Z,3.33
2018-12-29T21:11:37.517Z,2.97
2018-12-29T21:16:47.371Z,2.97
2018-12-29T21:21:53.492Z,2.63
2018-12-29T21:27:01.925Z,2.83
2018-12-29T21:32:10.900Z,2.27
2018-12-29T21:37:19.928Z,2.33
2018-12-29T21:42:26.259Z,2.10
2018-12-29T21:47:32.681Z,2.10
2018-12-29T21:52:38.633Z,2.07
2018-12-29T21:58:09.371Z,2.20
2018-12-29T22:03:17.356Z,2.27
2018-12-29T22:08:27.279Z,1.90
2018-12-29T22:13:33.750Z,2.60
2018-12-29T22:18:43.220Z,1.90
2018-12-29T22:23:51.394Z,1.70
2018-12-29T22:28:57.518Z,1.70
2018-12-29T22:34:05.184Z,1.40
2018-12-29T22:39:12.114Z,1.80
2018-12-29T22:44:18.522Z,1.50
2018-12-29T22:49:24.763Z,1.70
2018-12-29T22:54:32.641Z,1.70
2018-12-29T22:59:39.262Z,1.50
2018-12-29T23:04:45.706Z,2.87
2018-12-29T23:09:52.416Z,1.60
2018-12-29T23:14:58.709Z,1.47
2018-12-29T23:20:06.316Z,1.70
2018-12-29T23:25:13.511Z,1.80
2018-12-29T23:30:19.985Z,1.60
2018-12-29T23:35:30.726Z,1.60
2018-12-29T23:40:41.007Z,1.27
2018-12-29T23:45:47.996Z,1.70
